| time (UTC) | temp C | wind direction | speed KPH | gust KPH | rain 1hr cm | rain 24hr cm | rain mn cm | humidity % | barometer mb |
| 20260507113012 | 8 | 309 | 1.6 | 1.6 | 0.00 | 0.84 | 0.84 | 97 | 1007.8 |
| 20260507112509 | 8 | 304 | 0.0 | 1.6 | 0.00 | 0.84 | 0.84 | 97 | 1007.9 |
| 20260507112006 | 8 | 317 | 0.0 | 0.0 | 0.13 | 0.84 | 0.84 | 97 | 1007.7 |
| 20260507111504 | 8 | 260 | 0.0 | 1.6 | 0.13 | 0.84 | 0.84 | 97 | 1007.7 |
| 20260507110959 | 8 | 13 | 0.0 | 1.6 | 0.18 | 0.81 | 0.81 | 97 | 1007.8 |
| 20260507110455 | 8 | 328 | 0.0 | 0.0 | 0.18 | 0.81 | 0.81 | 97 | 1008.0 |
| 20260507105952 | 8 | 343 | 0.0 | 0.0 | 0.13 | 0.79 | 0.79 | 97 | 1008.0 |
| 20260507105449 | 8 | 321 | 0.0 | 0.0 | 0.13 | 0.79 | 0.79 | 97 | 1008.0 |
| 20260507104945 | 8 | 312 | 0.0 | 1.6 | 0.00 | 0.76 | 0.76 | 97 | 1008.3 |
| 20260507104443 | 8 | 354 | 1.6 | 1.6 | 0.18 | 0.76 | 0.76 | 97 | 1007.5 |
| 20260507103938 | 8 | 7 | 0.0 | 0.0 | 0.18 | 0.76 | 0.76 | 97 | 1007.6 |
| 20260507103435 | 8 | 323 | 0.0 | 1.6 | 0.00 | 0.74 | 0.74 | 97 | 1007.6 |
| 20260507102931 | 8 | 320 | 0.0 | 1.6 | 0.00 | 0.74 | 0.74 | 97 | 1007.7 |
| 20260507102428 | 8 | 314 | 0.0 | 0.0 | 0.00 | 0.74 | 0.74 | 97 | 1007.2 |
| 20260507101925 | 8 | 327 | 0.0 | 0.0 | 0.00 | 0.74 | 0.74 | 97 | 1007.2 |
| 20260507101420 | 8 | 339 | 0.0 | 1.6 | 0.00 | 0.74 | 0.74 | 97 | 1007.1 |
| 20260507100916 | 8 | 305 | 3.2 | 3.2 | 0.00 | 0.74 | 0.74 | 97 | 1007.2 |
| 20260507100414 | 8 | 303 | 1.6 | 4.8 | 0.00 | 0.74 | 0.74 | 97 | 1007.0 |
| 20260507095912 | 9 | 351 | 0.0 | 0.0 | 0.00 | 0.74 | 0.74 | 97 | 1007.1 |
| 20260507095409 | 9 | 332 | 0.0 | 0.0 | 0.00 | 0.74 | 0.74 | 97 | 1007.2 |
| 20260507094906 | 9 | 318 | 0.0 | 0.0 | 0.13 | 0.74 | 0.74 | 97 | 1007.2 |
| 20260507094402 | 9 | 342 | 0.0 | 0.0 | 0.00 | 0.71 | 0.71 | 97 | 1007.1 |
| 20260507093859 | 9 | 303 | 0.0 | 0.0 | 0.00 | 0.71 | 0.71 | 97 | 1007.4 |
| 20260507093358 | 9 | 308 | 0.0 | 0.0 | 0.00 | 0.71 | 0.71 | 97 | 1007.5 |
| 20260507092856 | 9 | 294 | 0.0 | 3.2 | 0.00 | 0.71 | 0.71 | 97 | 1007.2 |
| 20260507092351 | 9 | 333 | 0.0 | 0.0 | 0.00 | 0.71 | 0.71 | 97 | 1006.9 |
| 20260507091848 | 9 | 13 | 0.0 | 0.0 | 0.00 | 0.71 | 0.71 | 97 | 1006.9 |
| 20260507091344 | 9 | 320 | 0.0 | 0.0 | 0.00 | 0.71 | 0.71 | 97 | 1007.2 |
| 20260507090840 | 9 | 315 | 0.0 | 0.0 | 0.00 | 0.71 | 0.71 | 97 | 1007.1 |
| 20260507090337 | 10 | 2 | 0.0 | 1.6 | 0.00 | 0.71 | 0.71 | 97 | 1007.1 |
| 20260507085834 | 10 | 350 | 0.0 | 1.6 | 0.00 | 0.71 | 0.71 | 97 | 1007.0 |
| 20260507085331 | 10 | 43 | 0.0 | 0.0 | 0.18 | 0.71 | 0.71 | 97 | 1006.5 |
| 20260507084828 | 10 | 326 | 0.0 | 1.6 | 0.00 | 0.69 | 0.69 | 97 | 1006.7 |
| 20260507084324 | 10 | 338 | 0.0 | 3.2 | 0.00 | 0.69 | 0.69 | 97 | 1006.8 |
| 20260507083822 | 10 | 307 | 0.0 | 0.0 | 0.00 | 0.69 | 0.69 | 97 | 1007.0 |
| 20260507083318 | 10 | 319 | 0.0 | 0.0 | 0.00 | 0.69 | 0.69 | 97 | 1006.7 |
| 20260507082814 | 10 | 348 | 0.0 | 0.0 | 0.13 | 0.69 | 0.69 | 97 | 1006.7 |
| 20260507082310 | 10 | 348 | 0.0 | 3.2 | 0.13 | 0.69 | 0.69 | 97 | 1006.6 |
| 20260507081808 | 10 | 269 | 3.2 | 4.8 | 0.00 | 0.66 | 0.66 | 97 | 1006.8 |
| 20260507081303 | 10 | 347 | 0.0 | 1.6 | 0.18 | 0.66 | 0.66 | 97 | 1006.9 |
| 20260507080800 | 10 | 335 | 1.6 | 1.6 | 0.18 | 0.66 | 0.66 | 97 | 1006.9 |
| 20260507080257 | 10 | 316 | 0.0 | 1.6 | 0.13 | 0.64 | 0.64 | 97 | 1006.8 |
| 20260507075752 | 10 | 335 | 0.0 | 1.6 | 0.30 | 0.64 | 0.64 | 97 | 1006.7 |
| 20260507075248 | 10 | 305 | 1.6 | 3.2 | 0.18 | 0.61 | 0.61 | 97 | 1006.7 |
| 20260507074744 | 10 | 282 | 1.6 | 3.2 | 0.13 | 0.58 | 0.58 | 97 | 1006.8 |
| 20260507074243 | 10 | 331 | 3.2 | 4.8 | 0.48 | 0.58 | 0.58 | 97 | 1006.7 |
| 20260507073739 | 10 | 357 | 1.6 | 1.6 | 0.79 | 0.56 | 0.56 | 97 | 1006.8 |
| 20260507073236 | 10 | 303 | 1.6 | 4.8 | 0.89 | 0.48 | 0.48 | 97 | 1006.7 |
| 20260507072733 | 10 | 315 | 3.2 | 4.8 | 1.50 | 0.41 | 0.41 | 97 | 1007.3 |
| 20260507072231 | 10 | 23 | 1.6 | 4.8 | 1.68 | 0.28 | 0.28 | 97 | 1007.4 |
| 20260507071728 | 10 | 317 | 3.2 | 3.2 | 0.71 | 0.13 | 0.13 | 97 | 1006.8 |
| 20260507071224 | 11 | 339 | 1.6 | 4.8 | 0.00 | 0.00 | 0.00 | 98 | 1006.6 |
| 20260507070721 | 11 | 342 | 0.0 | 1.6 | 0.00 | 0.00 | 0.00 | 98 | 1006.0 |
| 20260507070218 | 11 | 1 | 1.6 | 3.2 | 0.00 | 0.00 | 0.00 | 98 | 1005.7 |
| 20260507065715 | 11 | 355 | 0.0 | 4.8 | 0.00 | 0.00 | 0.00 | 98 | 1005.9 |
| 20260507065212 | 11 | 14 | 3.2 | 3.2 | 0.00 | 0.00 | 0.00 | 98 | 1005.6 |
| 20260507064709 | 12 | 336 | 0.0 | 1.6 | 0.00 | 0.00 | 0.00 | 98 | 1005.7 |
| 20260507064208 | 12 | 340 | 0.0 | 0.0 | 0.00 | 0.00 | 0.00 | 98 | 1005.5 |
| 20260507063705 | 12 | 350 | 0.0 | 0.0 | 0.00 | 0.00 | 0.00 | 98 | 1005.8 |
| 20260507063201 | 12 | 357 | 0.0 | 1.6 | 0.00 | 0.00 | 0.00 | 98 | 1006.0 |
| 20260507062658 | 12 | 309 | 0.0 | 0.0 | 0.00 | 0.00 | 0.00 | 98 | 1006.1 |
| 20260507062156 | 12 | 314 | 0.0 | 1.6 | 0.00 | 0.00 | 0.00 | 98 | 1005.9 |
| 20260507061654 | 12 | 304 | 0.0 | 0.0 | 0.00 | 0.00 | 0.00 | 98 | 1006.1 |
| 20260507061152 | 12 | 300 | 0.0 | 0.0 | 0.00 | 0.00 | 0.00 | 98 | 1006.0 |
| 20260507060649 | 12 | 321 | 0.0 | 0.0 | 0.00 | 0.00 | 0.00 | 98 | 1005.9 |
| 20260507060145 | 12 | 308 | 0.0 | 0.0 | 0.00 | 0.00 | 0.00 | 98 | 1006.0 |
| 20260507055641 | 12 | 307 | 0.0 | 0.0 | 0.00 | 0.00 | 0.00 | 98 | 1005.9 |
| 20260507055137 | 12 | 307 | 0.0 | 0.0 | 0.00 | 0.00 | 0.00 | 98 | 1006.0 |
| 20260507054633 | 12 | 312 | 0.0 | 0.0 | 0.00 | 0.00 | 0.00 | 98 | 1006.1 |
| 20260507054130 | 12 | 322 | 0.0 | 0.0 | 0.00 | 0.00 | 0.00 | 98 | 1006.1 |
| 20260507053628 | 12 | 274 | 0.0 | 0.0 | 0.00 | 0.00 | 0.00 | 98 | 1006.3 |
| 20260507053126 | 12 | 296 | 0.0 | 3.2 | 0.00 | 0.00 | 0.00 | 98 | 1006.6 |
| 20260507052624 | 12 | 298 | 1.6 | 3.2 | 0.00 | 0.00 | 0.00 | 98 | 1006.4 |
| 20260507052120 | 12 | 304 | 1.6 | 3.2 | 0.00 | 0.00 | 0.00 | 98 | 1006.7 |
| 20260507051618 | 12 | 314 | 1.6 | 3.2 | 0.00 | 0.00 | 0.00 | 98 | 1006.6 |
| 20260507051115 | 12 | 310 | 0.0 | 3.2 | 0.00 | 0.00 | 0.00 | 98 | 1006.8 |
| 20260507050611 | 13 | 287 | 1.6 | 3.2 | 0.00 | 0.00 | 0.00 | 98 | 1007.0 |
| 20260507050108 | 13 | 298 | 0.0 | 1.6 | 0.00 | 0.00 | 0.00 | 98 | 1007.0 |
| 20260507045605 | 13 | 317 | 1.6 | 3.2 | 0.00 | 0.00 | 0.00 | 98 | 1006.9 |
| 20260507045102 | 13 | 299 | 1.6 | 3.2 | 0.00 | 0.00 | 0.00 | 98 | 1006.9 |
| 20260507044558 | 13 | 287 | 1.6 | 3.2 | 0.00 | 0.00 | 0.00 | 98 | 1006.7 |
| 20260507044056 | 13 | 299 | 3.2 | 4.8 | 0.00 | 0.00 | 0.00 | 98 | 1006.6 |
| 20260507043551 | 13 | 307 | 0.0 | 3.2 | 0.00 | 0.00 | 0.00 | 98 | 1006.7 |
| 20260507043049 | 13 | 312 | 3.2 | 4.8 | 0.00 | 0.00 | 0.00 | 98 | 1006.8 |
| 20260507042544 | 13 | 274 | 3.2 | 4.8 | 0.00 | 0.00 | 0.00 | 98 | 1006.9 |
| 20260507042040 | 13 | 298 | 3.2 | 4.8 | 0.00 | 0.00 | 0.00 | 98 | 1006.9 |
| 20260507041537 | 13 | 300 | 4.8 | 6.4 | 0.00 | 0.00 | 0.00 | 98 | 1007.0 |
| 20260507041034 | 13 | 295 | 3.2 | 4.8 | 0.00 | 0.00 | 0.00 | 98 | 1006.7 |
| 20260507040531 | 12 | 312 | 3.2 | 4.8 | 0.00 | 0.00 | 0.00 | 98 | 1006.6 |
| 20260507040026 | 12 | 309 | 0.0 | 3.2 | 0.00 | 0.18 | 0.18 | 98 | 1006.7 |
| 20260507035523 | 13 | 316 | 6.4 | 6.4 | 0.00 | 0.18 | 0.18 | 98 | 1006.5 |
| 20260507035020 | 13 | 309 | 1.6 | 4.8 | 0.00 | 0.18 | 0.18 | 98 | 1006.6 |
| 20260507034517 | 13 | 309 | 4.8 | 4.8 | 0.00 | 0.18 | 0.18 | 98 | 1007.1 |
| 20260507034014 | 13 | 309 | 3.2 | 4.8 | 0.00 | 0.18 | 0.18 | 98 | 1006.8 |
| 20260507033512 | 13 | 307 | 3.2 | 4.8 | 0.00 | 0.18 | 0.18 | 98 | 1006.7 |
| 20260507033009 | 12 | 290 | 3.2 | 6.4 | 0.00 | 0.18 | 0.18 | 98 | 1006.6 |
| 20260507032506 | 12 | 309 | 3.2 | 4.8 | 0.00 | 0.18 | 0.18 | 98 | 1007.1 |
| 20260507032002 | 12 | 301 | 1.6 | 6.4 | 0.00 | 0.18 | 0.18 | 98 | 1006.9 |
| 20260507031458 | 12 | 279 | 1.6 | 4.8 | 0.00 | 0.18 | 0.18 | 98 | 1006.9 |
| 20260507030955 | 12 | 307 | 3.2 | 4.8 | 0.00 | 0.18 | 0.18 | 98 | 1007.2 |
| 20260507030452 | 12 | 303 | 3.2 | 4.8 | 0.00 | 0.18 | 0.18 | 98 | 1007.1 |
| 20260507025950 | 12 | 299 | 3.2 | 6.4 | 0.00 | 0.18 | 0.18 | 98 | 1007.0 |
| 20260507025447 | 12 | 311 | 1.6 | 4.8 | 0.00 | 0.18 | 0.18 | 98 | 1007.1 |
| 20260507024944 | 12 | 289 | 3.2 | 6.4 | 0.00 | 0.18 | 0.18 | 98 | 1006.8 |
| 20260507024442 | 12 | 280 | 3.2 | 4.8 | 0.00 | 0.18 | 0.18 | 98 | 1006.7 |
| 20260507023937 | 12 | 296 | 0.0 | 4.8 | 0.00 | 0.18 | 0.18 | 98 | 1007.1 |
| 20260507023434 | 12 | 299 | 3.2 | 4.8 | 0.00 | 0.18 | 0.18 | 98 | 1006.9 |
| 20260507022931 | 12 | 300 | 3.2 | 4.8 | 0.00 | 0.18 | 0.18 | 98 | 1007.0 |
| 20260507022429 | 12 | 296 | 1.6 | 3.2 | 0.00 | 0.18 | 0.18 | 98 | 1006.8 |
| 20260507021924 | 12 | 307 | 4.8 | 4.8 | 0.00 | 0.18 | 0.18 | 98 | 1007.0 |
| 20260507021419 | 12 | 333 | 6.4 | 9.7 | 0.00 | 0.18 | 0.18 | 98 | 1006.9 |
| 20260507020918 | 12 | 315 | 3.2 | 4.8 | 0.00 | 0.18 | 0.18 | 98 | 1007.1 |
| 20260507020414 | 12 | 250 | 3.2 | 4.8 | 0.00 | 0.18 | 0.18 | 98 | 1007.0 |
| 20260507015911 | 12 | 259 | 3.2 | 4.8 | 0.00 | 0.18 | 0.18 | 98 | 1007.0 |
| 20260507015409 | 12 | 281 | 4.8 | 4.8 | 0.00 | 0.18 | 0.18 | 98 | 1007.0 |
| 20260507014906 | 12 | 271 | 1.6 | 3.2 | 0.00 | 0.18 | 0.18 | 98 | 1006.8 |
| 20260507014402 | 12 | 290 | 0.0 | 3.2 | 0.00 | 0.18 | 0.18 | 98 | 1006.8 |
| 20260507013859 | 12 | 311 | 1.6 | 3.2 | 0.00 | 0.18 | 0.18 | 98 | 1007.0 |
| 20260507013356 | 12 | 272 | 3.2 | 4.8 | 0.00 | 0.18 | 0.18 | 98 | 1007.0 |
| 20260507012853 | 12 | 283 | 3.2 | 3.2 | 0.00 | 0.18 | 0.18 | 98 | 1007.2 |
| 20260507012349 | 12 | 350 | 1.6 | 3.2 | 0.00 | 0.18 | 0.18 | 98 | 1007.0 |
| 20260507011847 | 12 | 285 | 1.6 | 3.2 | 0.00 | 0.18 | 0.18 | 98 | 1007.0 |
| 20260507011344 | 12 | 331 | 4.8 | 4.8 | 0.00 | 0.18 | 0.18 | 98 | 1007.3 |
| 20260507010843 | 12 | 269 | 3.2 | 4.8 | 0.00 | 0.18 | 0.18 | 98 | 1007.2 |
| 20260507010339 | 12 | 290 | 1.6 | 3.2 | 0.00 | 0.18 | 0.18 | 97 | 1007.4 |
| 20260507005836 | 12 | 304 | 1.6 | 4.8 | 0.00 | 0.18 | 0.18 | 98 | 1007.5 |
| 20260507005333 | 12 | 278 | 3.2 | 6.4 | 0.00 | 0.18 | 0.18 | 97 | 1007.6 |
| 20260507004830 | 12 | 295 | 1.6 | 3.2 | 0.00 | 0.18 | 0.18 | 97 | 1007.4 |
| 20260507004327 | 12 | 258 | 3.2 | 6.4 | 0.00 | 0.18 | 0.18 | 97 | 1007.5 |
| 20260507003824 | 12 | 296 | 1.6 | 3.2 | 0.00 | 0.18 | 0.18 | 97 | 1007.5 |
| 20260507003319 | 12 | 297 | 3.2 | 4.8 | 0.00 | 0.18 | 0.18 | 97 | 1007.3 |
| 20260507002814 | 12 | 307 | 3.2 | 3.2 | 0.00 | 0.18 | 0.18 | 97 | 1007.4 |
| 20260507002311 | 12 | 261 | 1.6 | 4.8 | 0.00 | 0.18 | 0.18 | 97 | 1007.2 |
| 20260507001809 | 12 | 300 | 0.0 | 3.2 | 0.00 | 0.18 | 0.18 | 97 | 1007.2 |
| 20260507001306 | 12 | 294 | 4.8 | 4.8 | 0.00 | 0.18 | 0.18 | 97 | 1007.2 |
| 20260507000802 | 12 | 300 | 3.2 | 3.2 | 0.00 | 0.18 | 0.18 | 97 | 1007.3 |
| 20260507000259 | 12 | 275 | 1.6 | 3.2 | 0.00 | 0.18 | 0.18 | 97 | 1007.1 |
| 20260506235754 | 12 | 309 | 4.8 | 4.8 | 0.00 | 0.18 | 0.18 | 97 | 1007.3 |
| 20260506235250 | 12 | 244 | 3.2 | 6.4 | 0.00 | 0.18 | 0.18 | 97 | 1007.3 |
| 20260506234747 | 12 | 239 | 1.6 | 4.8 | 0.00 | 0.18 | 0.18 | 97 | 1007.2 |
| 20260506234244 | 12 | 329 | 1.6 | 3.2 | 0.00 | 0.18 | 0.18 | 97 | 1007.2 |
| 20260506233743 | 12 | 244 | 3.2 | 4.8 | 0.00 | 0.18 | 0.18 | 97 | 1007.3 |
| 20260506233239 | 12 | 298 | 3.2 | 6.4 | 0.00 | 0.18 | 0.18 | 97 | 1007.4 |
| 20260506232736 | 12 | 274 | 1.6 | 4.8 | 0.00 | 0.18 | 0.18 | 97 | 1007.1 |
| 20260506232236 | 12 | 293 | 3.2 | 6.4 | 0.00 | 0.18 | 0.18 | 97 | 1007.1 |
| 20260506231733 | 12 | 325 | 1.6 | 4.8 | 0.00 | 0.18 | 0.18 | 97 | 1007.1 |
| 20260506231231 | 12 | 305 | 1.6 | 4.8 | 0.18 | 0.18 | 0.18 | 97 | 1007.0 |
| 20260506230728 | 12 | 246 | 4.8 | 6.4 | 0.18 | 0.18 | 0.18 | 97 | 1006.9 |
| 20260506230225 | 12 | 277 | 4.8 | 9.7 | 0.00 | 0.15 | 0.15 | 97 | 1007.3 |
| 20260506225721 | 12 | 215 | 0.0 | 1.6 | 0.00 | 0.15 | 0.15 | 96 | 1007.1 |
| 20260506225219 | 12 | 335 | 0.0 | 3.2 | 0.00 | 0.15 | 0.15 | 96 | 1007.1 |
| 20260506224715 | 12 | 72 | 3.2 | 6.4 | 0.00 | 0.15 | 0.15 | 96 | 1007.1 |
| 20260506224212 | 12 | 345 | 0.0 | 4.8 | 0.00 | 0.15 | 0.15 | 96 | 1007.1 |
| 20260506223708 | 12 | 309 | 3.2 | 3.2 | 0.00 | 0.15 | 0.15 | 96 | 1007.0 |
| 20260506223204 | 12 | 282 | 3.2 | 3.2 | 0.00 | 0.15 | 0.15 | 96 | 1007.0 |
| 20260506222701 | 12 | 323 | 3.2 | 4.8 | 0.00 | 0.15 | 0.15 | 96 | 1007.0 |
| 20260506222156 | 12 | 269 | 1.6 | 6.4 | 0.00 | 0.15 | 0.15 | 96 | 1006.9 |
| 20260506221655 | 12 | 208 | 1.6 | 6.4 | 0.00 | 0.15 | 0.15 | 96 | 1006.7 |
| 20260506221153 | 12 | 292 | 3.2 | 4.8 | 0.00 | 0.15 | 0.15 | 96 | 1007.0 |
| 20260506220649 | 12 | 261 | 3.2 | 4.8 | 0.00 | 0.15 | 0.15 | 96 | 1006.9 |
| 20260506220144 | 12 | 306 | 4.8 | 4.8 | 0.13 | 0.15 | 0.15 | 96 | 1006.8 |
| 20260506215641 | 12 | 289 | 3.2 | 6.4 | 0.13 | 0.15 | 0.15 | 96 | 1006.8 |
| 20260506215136 | 12 | 310 | 6.4 | 6.4 | 0.00 | 0.13 | 0.13 | 96 | 1007.1 |
| 20260506214634 | 12 | 287 | 1.6 | 4.8 | 0.00 | 0.13 | 0.13 | 96 | 1007.3 |
| 20260506214131 | 12 | 294 | 1.6 | 4.8 | 0.00 | 0.13 | 0.13 | 96 | 1007.3 |
| 20260506213629 | 12 | 278 | 4.8 | 11.3 | 0.18 | 0.13 | 0.13 | 96 | 1007.5 |
| 20260506213126 | 12 | 305 | 3.2 | 6.4 | 0.18 | 0.13 | 0.13 | 96 | 1007.5 |
| 20260506212624 | 12 | 316 | 1.6 | 3.2 | 0.00 | 0.10 | 0.10 | 95 | 1007.3 |
| 20260506212118 | 12 | 304 | 3.2 | 6.4 | 0.00 | 0.10 | 0.10 | 95 | 1007.4 |
| 20260506211614 | 12 | 306 | 3.2 | 11.3 | 0.00 | 0.10 | 0.10 | 95 | 1007.4 |
| 20260506211111 | 13 | 36 | 3.2 | 9.7 | 0.18 | 0.10 | 0.10 | 95 | 1007.5 |
| 20260506210608 | 13 | 243 | 3.2 | 4.8 | 0.18 | 0.10 | 0.10 | 95 | 1007.5 |
| 20260506210104 | 13 | 284 | 0.0 | 3.2 | 0.00 | 0.08 | 0.08 | 95 | 1007.7 |
| 20260506205601 | 13 | 304 | 4.8 | 4.8 | 0.00 | 0.08 | 0.08 | 95 | 1007.8 |
| 20260506205056 | 13 | 322 | 3.2 | 12.9 | 0.00 | 0.08 | 0.08 | 95 | 1007.8 |
| 20260506204554 | 13 | 356 | 8.0 | 9.7 | 0.00 | 0.08 | 0.08 | 95 | 1007.8 |
| 20260506204051 | 13 | 312 | 3.2 | 11.3 | 0.00 | 0.08 | 0.08 | 95 | 1007.7 |
| 20260506203550 | 13 | 131 | 4.8 | 6.4 | 0.00 | 0.08 | 0.08 | 95 | 1007.6 |
| 20260506203046 | 13 | 304 | 3.2 | 4.8 | 0.00 | 0.08 | 0.08 | 95 | 1007.8 |
| 20260506202543 | 13 | 321 | 3.2 | 6.4 | 0.00 | 0.08 | 0.08 | 94 | 1008.0 |
| 20260506202039 | 13 | 299 | 4.8 | 6.4 | 0.00 | 0.08 | 0.08 | 94 | 1008.1 |
| 20260506201537 | 13 | 265 | 6.4 | 9.7 | 0.00 | 0.08 | 0.08 | 94 | 1008.0 |
| 20260506201033 | 13 | 289 | 4.8 | 6.4 | 0.00 | 0.08 | 0.08 | 94 | 1008.1 |
| 20260506200530 | 13 | 262 | 3.2 | 9.7 | 0.13 | 0.08 | 0.08 | 94 | 1008.0 |
| 20260506200027 | 13 | 265 | 3.2 | 6.4 | 0.13 | 0.08 | 0.08 | 94 | 1008.3 |
| 20260506195524 | 13 | 313 | 4.8 | 6.4 | 0.00 | 0.05 | 0.05 | 93 | 1008.4 |
| 20260506195020 | 13 | 285 | 3.2 | 11.3 | 0.00 | 0.05 | 0.05 | 93 | 1008.3 |
| 20260506194518 | 13 | 256 | 4.8 | 11.3 | 0.00 | 0.05 | 0.05 | 93 | 1008.1 |
| 20260506194014 | 13 | 299 | 6.4 | 6.4 | 0.00 | 0.05 | 0.05 | 93 | 1008.3 |
| 20260506193511 | 13 | 245 | 3.2 | 6.4 | 0.00 | 0.05 | 0.05 | 93 | 1008.5 |
| 20260506193008 | 13 | 283 | 1.6 | 4.8 | 0.18 | 0.05 | 0.05 | 93 | 1008.4 |
| 20260506192505 | 13 | 289 | 3.2 | 6.4 | 0.18 | 0.05 | 0.05 | 92 | 1008.5 |
| 20260506192001 | 13 | 319 | 4.8 | 6.4 | 0.13 | 0.03 | 0.03 | 91 | 1008.5 |
| 20260506191458 | 13 | 240 | 4.8 | 6.4 | 0.13 | 0.03 | 0.03 | 90 | 1008.6 |
| 20260506190954 | 13 | 143 | 3.2 | 4.8 | 0.00 | 0.00 | 0.00 | 90 | 1008.5 |
| 20260506190451 | 14 | 275 | 3.2 | 6.4 | 0.00 | 0.00 | 0.00 | 88 | 1008.4 |
| 20260506185948 | 14 | 237 | 1.6 | 6.4 | 0.00 | 0.00 | 0.00 | 88 | 1008.5 |
| 20260506185445 | 14 | 245 | 3.2 | 6.4 | 0.00 | 0.00 | 0.00 | 86 | 1008.6 |
| 20260506184942 | 15 | 345 | 6.4 | 9.7 | 0.00 | 0.00 | 0.00 | 85 | 1008.8 |
| 20260506184439 | 15 | 281 | 3.2 | 3.2 | 0.00 | 0.00 | 0.00 | 83 | 1008.7 |
| 20260506183936 | 15 | 278 | 4.8 | 9.7 | 0.00 | 0.00 | 0.00 | 81 | 1008.9 |
| 20260506183431 | 16 | 322 | 1.6 | 4.8 | 0.00 | 0.00 | 0.00 | 79 | 1009.0 |
| 20260506182929 | 16 | 266 | 4.8 | 11.3 | 0.00 | 0.00 | 0.00 | 78 | 1009.0 |
| 20260506182426 | 16 | 278 | 6.4 | 9.7 | 0.00 | 0.00 | 0.00 | 77 | 1009.1 |
| 20260506181923 | 16 | 267 | 6.4 | 11.3 | 0.00 | 0.00 | 0.00 | 76 | 1009.0 |
| 20260506181421 | 16 | 266 | 4.8 | 9.7 | 0.00 | 0.00 | 0.00 | 76 | 1009.1 |
| 20260506180918 | 16 | 290 | 3.2 | 9.7 | 0.00 | 0.00 | 0.00 | 76 | 1009.2 |
| 20260506180414 | 16 | 292 | 4.8 | 6.4 | 0.00 | 0.00 | 0.00 | 75 | 1009.4 |
| 20260506175911 | 16 | 294 | 4.8 | 11.3 | 0.00 | 0.00 | 0.00 | 75 | 1009.1 |
| 20260506175408 | 16 | 290 | 4.8 | 12.9 | 0.00 | 0.00 | 0.00 | 75 | 1009.3 |
| 20260506174905 | 17 | 300 | 4.8 | 6.4 | 0.00 | 0.00 | 0.00 | 74 | 1009.4 |
| 20260506174402 | 17 | 306 | 4.8 | 9.7 | 0.00 | 0.00 | 0.00 | 74 | 1009.5 |
| 20260506173859 | 17 | 235 | 3.2 | 11.3 | 0.00 | 0.00 | 0.00 | 73 | 1009.3 |
| 20260506173356 | 17 | 277 | 3.2 | 14.5 | 0.00 | 0.00 | 0.00 | 73 | 1009.7 |
| 20260506172853 | 17 | 99 | 6.4 | 9.7 | 0.00 | 0.00 | 0.00 | 72 | 1009.7 |
| 20260506172350 | 18 | 270 | 4.8 | 6.4 | 0.00 | 0.00 | 0.00 | 70 | 1009.7 |
| 20260506171847 | 18 | 253 | 3.2 | 9.7 | 0.00 | 0.00 | 0.00 | 72 | 1009.5 |
| 20260506171344 | 18 | 225 | 4.8 | 11.3 | 0.00 | 0.00 | 0.00 | 70 | 1009.8 |
| 20260506170842 | 18 | 293 | 3.2 | 6.4 | 0.00 | 0.00 | 0.00 | 70 | 1009.7 |
| 20260506170338 | 18 | 278 | 3.2 | 6.4 | 0.00 | 0.00 | 0.00 | 69 | 1009.7 |
| 20260506165837 | 19 | 96 | 6.4 | 11.3 | 0.00 | 0.00 | 0.00 | 68 | 1009.6 |
| 20260506165335 | 18 | 141 | 1.6 | 4.8 | 0.00 | 0.00 | 0.00 | 68 | 1009.7 |
| 20260506164831 | 18 | 258 | 8.0 | 12.9 | 0.00 | 0.00 | 0.00 | 68 | 1009.7 |
| 20260506164327 | 19 | 246 | 3.2 | 9.7 | 0.00 | 0.00 | 0.00 | 68 | 1009.9 |
| 20260506163825 | 19 | 157 | 4.8 | 12.9 | 0.00 | 0.00 | 0.00 | 67 | 1009.9 |
| 20260506163319 | 18 | 301 | 1.6 | 9.7 | 0.00 | 0.00 | 0.00 | 70 | 1009.9 |
| 20260506162815 | 18 | 279 | 6.4 | 11.3 | 0.00 | 0.00 | 0.00 | 68 | 1010.0 |
| 20260506162313 | 18 | 325 | 6.4 | 6.4 | 0.00 | 0.00 | 0.00 | 68 | 1010.1 |
| 20260506161810 | 18 | 315 | 4.8 | 12.9 | 0.00 | 0.00 | 0.00 | 69 | 1010.4 |
| 20260506161308 | 18 | 309 | 3.2 | 6.4 | 0.00 | 0.00 | 0.00 | 69 | 1010.4 |
| 20260506160806 | 18 | 240 | 6.4 | 9.7 | 0.00 | 0.00 | 0.00 | 68 | 1010.3 |
| 20260506160302 | 18 | 75 | 3.2 | 6.4 | 0.00 | 0.00 | 0.00 | 69 | 1010.4 |
| 20260506155801 | 18 | 242 | 3.2 | 11.3 | 0.00 | 0.00 | 0.00 | 67 | 1010.3 |
| 20260506155257 | 18 | 293 | 1.6 | 4.8 | 0.00 | 0.00 | 0.00 | 67 | 1010.5 |
| 20260506153410 | 20 | 325 | 4.8 | 9.7 | 0.00 | 0.00 | 0.00 | 64 | 1010.5 |
| 20260506152907 | 20 | 231 | 6.4 | 6.4 | 0.00 | 0.00 | 0.00 | 63 | 1010.4 |
| 20260506152404 | 20 | 262 | 3.2 | 9.7 | 0.00 | 0.00 | 0.00 | 66 | 1010.5 |
| 20260506151902 | 20 | 269 | 6.4 | 17.7 | 0.00 | 0.00 | 0.00 | 63 | 1010.4 |
| 20260506151359 | 20 | 157 | 6.4 | 11.3 | 0.00 | 0.00 | 0.00 | 64 | 1010.7 |
| 20260506150856 | 20 | 259 | 9.7 | 16.1 | 0.00 | 0.00 | 0.00 | 64 | 1010.6 |
| 20260506150352 | 19 | 279 | 3.2 | 12.9 | 0.00 | 0.00 | 0.00 | 66 | 1010.4 |
| 20260506145849 | 19 | 317 | 1.6 | 4.8 | 0.00 | 0.00 | 0.00 | 66 | 1010.6 |
| 20260506145345 | 20 | 148 | 6.4 | 12.9 | 0.00 | 0.00 | 0.00 | 64 | 1010.7 |
| 20260506144843 | 20 | 249 | 4.8 | 9.7 | 0.00 | 0.00 | 0.00 | 64 | 1010.7 |
| 20260506144339 | 19 | 304 | 6.4 | 9.7 | 0.00 | 0.00 | 0.00 | 66 | 1010.7 |
| 20260506143838 | 19 | 11 | 9.7 | 12.9 | 0.00 | 0.00 | 0.00 | 66 | 1010.6 |
| 20260506143335 | 19 | 257 | 4.8 | 11.3 | 0.00 | 0.00 | 0.00 | 68 | 1010.6 |
| 20260506142833 | 20 | 283 | 4.8 | 6.4 | 0.00 | 0.00 | 0.00 | 65 | 1010.5 |
| 20260506142331 | 20 | 299 | 4.8 | 4.8 | 0.00 | 0.00 | 0.00 | 66 | 1010.6 |
| 20260506141829 | 20 | 11 | 4.8 | 9.7 | 0.00 | 0.00 | 0.00 | 66 | 1010.5 |
| 20260506141327 | 18 | 276 | 3.2 | 4.8 | 0.00 | 0.00 | 0.00 | 70 | 1010.7 |
| 20260506140824 | 18 | 279 | 3.2 | 9.7 | 0.00 | 0.00 | 0.00 | 71 | 1010.4 |
| 20260506140321 | 18 | 292 | 4.8 | 9.7 | 0.00 | 0.00 | 0.00 | 70 | 1010.8 |
| 20260506135818 | 18 | 229 | 3.2 | 6.4 | 0.00 | 0.00 | 0.00 | 70 | 1010.6 |
| 20260506135314 | 18 | 300 | 4.8 | 9.7 | 0.00 | 0.00 | 0.00 | 70 | 1010.5 |
| 20260506134811 | 18 | 234 | 3.2 | 4.8 | 0.00 | 0.00 | 0.00 | 70 | 1010.7 |
| 20260506134308 | 18 | 277 | 6.4 | 9.7 | 0.00 | 0.00 | 0.00 | 71 | 1010.7 |
| 20260506133804 | 17 | 211 | 3.2 | 9.7 | 0.00 | 0.00 | 0.00 | 71 | 1010.8 |
| 20260506133301 | 18 | 125 | 1.6 | 4.8 | 0.00 | 0.00 | 0.00 | 71 | 1010.7 |
| 20260506132758 | 18 | 317 | 3.2 | 11.3 | 0.00 | 0.00 | 0.00 | 70 | 1010.9 |
| 20260506132255 | 17 | 249 | 6.4 | 9.7 | 0.00 | 0.00 | 0.00 | 71 | 1011.0 |
| 20260506131753 | 17 | 222 | 3.2 | 9.7 | 0.00 | 0.00 | 0.00 | 71 | 1011.1 |
| 20260506131249 | 18 | 291 | 6.4 | 11.3 | 0.00 | 0.00 | 0.00 | 70 | 1011.1 |
| 20260506130746 | 18 | 311 | 4.8 | 6.4 | 0.00 | 0.00 | 0.00 | 71 | 1011.1 |
| 20260506130243 | 17 | 280 | 1.6 | 4.8 | 0.00 | 0.00 | 0.00 | 73 | 1011.1 |
| 20260506125741 | 17 | 308 | 6.4 | 12.9 | 0.00 | 0.00 | 0.00 | 74 | 1011.2 |
| 20260506125238 | 17 | 227 | 9.7 | 11.3 | 0.00 | 0.00 | 0.00 | 74 | 1011.2 |
| 20260506124737 | 16 | 268 | 3.2 | 9.7 | 0.00 | 0.00 | 0.00 | 76 | 1011.0 |
| 20260506124234 | 16 | 161 | 4.8 | 6.4 | 0.00 | 0.00 | 0.00 | 76 | 1011.0 |
| 20260506123731 | 16 | 300 | 4.8 | 9.7 | 0.00 | 0.00 | 0.00 | 76 | 1010.8 |
| 20260506123230 | 16 | 285 | 3.2 | 9.7 | 0.00 | 0.00 | 0.00 | 77 | 1011.1 |
| 20260506122726 | 16 | 307 | 1.6 | 11.3 | 0.00 | 0.00 | 0.00 | 79 | 1011.0 |
| 20260506122223 | 15 | 289 | 4.8 | 11.3 | 0.00 | 0.00 | 0.00 | 79 | 1010.8 |
| 20260506121722 | 15 | 293 | 3.2 | 4.8 | 0.00 | 0.00 | 0.00 | 81 | 1010.9 |
| 20260506121218 | 15 | 240 | 3.2 | 9.7 | 0.00 | 0.00 | 0.00 | 82 | 1011.0 |
| 20260506120716 | 15 | 234 | 6.4 | 6.4 | 0.00 | 0.00 | 0.00 | 83 | 1011.2 |
| 20260506120213 | 15 | 293 | 6.4 | 9.7 | 0.00 | 0.00 | 0.00 | 84 | 1011.0 |
| 20260506115711 | 14 | 273 | 3.2 | 9.7 | 0.00 | 0.00 | 0.00 | 85 | 1011.1 |
| 20260506115209 | 14 | 295 | 3.2 | 4.8 | 0.00 | 0.00 | 0.00 | 86 | 1011.2 |
| 20260506114706 | 14 | 275 | 4.8 | 6.4 | 0.00 | 0.00 | 0.00 | 86 | 1011.4 |
| 20260506114204 | 14 | 279 | 3.2 | 11.3 | 0.00 | 0.00 | 0.00 | 86 | 1011.5 |
| 20260506113703 | 14 | 273 | 3.2 | 11.3 | 0.00 | 0.00 | 0.00 | 86 | 1011.4 |